• Join FlightAware (Why Join?)
  • Login
  • US Flag 
08:28AM EDT


 

Airport Tracker/Info


-or-


 

Live Flight TrackerFlight Track Log ✈ EJM826 ✈ 27-Oct-2013 ✈ KSDF - KHOU

Flight Track Log - Related Links

Times and Time Zones

All times are in EDT time to prevent confusion due to time zone crossing. See the EJM826 flight status page for this flight to view local times or setup timezone preferences in your user account.

Time Position Orientation Groundspeed Altitude Reporting Facility
EDT Latitude Longitude Course Direction KTS MPH feet Rate Location/Type
08:08PM 38.0978 -85.7186 185° South 241 277 4,800  Level Indianapolis Center
08:09PM 38.0703 -85.7992 247° West 217 250 9,400 3,900 Climbing Indianapolis Center
08:10PM 38.0739 -85.8808 273° West 229 264 12,800 2,580 Climbing Indianapolis Center
08:11PM 38.0653 -85.9722 263° West 273 314 14,800 2,220 Climbing Indianapolis Center
08:12PM 38.0094 -86.0553 230° Southwest 304 350 17,500 2,520 Climbing Indianapolis Center
08:13PM 37.9544 -86.1442 232° Southwest 316 364 20,000 2,340 Climbing Indianapolis Center
08:14PM 37.8992 -86.2356 233° Southwest 323 372 22,300 2,160 Climbing Indianapolis Center
08:15PM 37.8303 -86.3197 224° Southwest 339 390 24,500 2,160 Climbing Indianapolis Center
08:16PM 37.7483 -86.4189 224° Southwest 349 402 26,800 2,100 Climbing Indianapolis Center
08:17PM 37.6731 -86.5086 223° Southwest 365 420 28,900 1,500 Climbing Indianapolis Center
08:18PM 37.5914 -86.6058 223° Southwest 376 433 30,000 960 Climbing Indianapolis Center
08:19PM 37.5100 -86.7017 223° Southwest 407 468 30,900 1,020 Climbing Indianapolis Center
08:20PM 37.4242 -86.8042 223° Southwest 419 482 32,200 1,440 Climbing Indianapolis Center
08:21PM 37.3356 -86.9092 223° Southwest 431 496 33,900 840 Climbing Indianapolis Center
08:22PM 37.2458 -87.0142 223° Southwest 436 502 34,000 540 Climbing Indianapolis Center
08:23PM 37.1389 -87.1403 223° Southwest 447 514 35,100 1,200 Climbing Indianapolis Center
08:24PM 37.0350 -87.2644 224° Southwest 445 512 36,900 1,440 Climbing Memphis Center
08:25PM 36.9478 -87.3664 223° Southwest 438 504 38,400 1,500 Climbing Memphis Center
08:26PM 36.8606 -87.4683 223° Southwest 433 498 39,900 1,320 Climbing Memphis Center
08:27PM 36.7753 -87.5672 223° Southwest 433 498 41,100 1,140 Climbing Memphis Center
08:28PM 36.6839 -87.6739 223° Southwest 433 498 42,200 900 Climbing Memphis Center
08:29PM 36.5986 -87.7697 222° Southwest 427 491 43,000 360 Climbing Memphis Center
08:30PM 36.5131 -87.8706 223° Southwest 422 486 43,000  Level Memphis Center
08:31PM 36.4253 -87.9686 222° Southwest 422 486 43,000  Level Memphis Center
08:32PM 36.3356 -88.0692 222° Southwest 434 499 43,000  Level Memphis Center
08:33PM 36.2497 -88.1642 222° Southwest 434 499 43,000  Level Memphis Center
08:34PM 36.1636 -88.2592 222° Southwest 429 494 43,000  Level Memphis Center
08:35PM 36.0797 -88.3564 223° Southwest 429 494 43,000  Level Memphis Center
08:36PM 35.9939 -88.4508 222° Southwest 423 487 43,000  Level Memphis Center
08:37PM 35.9075 -88.5478 222° Southwest 423 487 43,000  Level Memphis Center
08:38PM 35.8214 -88.6442 222° Southwest 423 487 43,000  Level Memphis Center
08:39PM 35.7414 -88.7303 221° Southwest 423 487 43,000  Level Memphis Center
08:40PM 35.6592 -88.8317 225° Southwest 423 487 43,000  Level Memphis Center
08:41PM 35.5686 -88.9253 220° Southwest 423 487 43,000  Level Memphis Center
08:42PM 35.4842 -89.0236 223° Southwest 423 487 43,000  Level Memphis Center
08:43PM 35.3933 -89.1167 220° Southwest 423 487 43,000  Level Memphis Center
08:44PM 35.3067 -89.2147 223° Southwest 423 487 43,000  Level Memphis Center
08:45PM 35.2136 -89.3175 222° Southwest 423 487 43,000  Level Memphis Center
08:46PM 35.1267 -89.4100 221° Southwest 423 487 43,000  Level Memphis Center
08:47PM 35.0397 -89.5050 222° Southwest 418 481 43,000  Level Memphis Center
08:48PM 34.9569 -89.5944 222° Southwest 413 475 43,000  Level Memphis Center
08:49PM 34.8719 -89.6839 221° Southwest 421 484 43,000  Level Memphis Center
08:50PM 34.7847 -89.7756 221° Southwest 421 484 43,000  Level Memphis Center
08:51PM 34.6956 -89.8772 223° Southwest 431 496 43,000  Level Memphis Center
08:52PM 34.6144 -89.9661 222° Southwest 418 481 43,000  Level Memphis Center
08:53PM 34.5272 -90.0597 221° Southwest 413 475 43,000  Level Memphis Center
08:54PM 34.4333 -90.1608 222° Southwest 413 475 43,000  Level Memphis Center
08:55PM 34.3439 -90.2539 221° Southwest 419 482 43,000  Level Memphis Center
08:56PM 34.2561 -90.3497 222° Southwest 419 482 43,000  Level Memphis Center
08:57PM 34.1686 -90.4400 220° Southwest 419 482 43,000  Level Memphis Center
08:58PM 34.0786 -90.5328 221° Southwest 419 482 43,000  Level Memphis Center
08:59PM 33.9908 -90.6253 221° Southwest 419 482 43,000  Level Memphis Center
09:00PM 33.9031 -90.7200 222° Southwest 419 482 43,000  Level Memphis Center
09:01PM 33.8256 -90.8022 221° Southwest 419 482 43,000  Level Memphis Center
09:02PM 33.7375 -90.8917 220° Southwest 412 474 43,000  Level Memphis Center
09:03PM 33.6494 -90.9836 221° Southwest 417 480 43,000  Level Memphis Center
09:04PM 33.5611 -91.0753 221° Southwest 417 480 43,000  Level Memphis Center
09:07PM 33.3803 -91.2614 221° Southwest 420 483 43,000  Level Fort Worth Center
09:08PM 33.2914 -91.3525 221° Southwest 420 483 43,000  Level Fort Worth Center
09:09PM 33.2017 -91.4439 220° Southwest 423 487 43,000  Level Fort Worth Center
09:10PM 33.0953 -91.5528 221° Southwest 422 486 43,000  Level Fort Worth Center
09:11PM 33.0069 -91.6425 220° Southwest 420 483 43,000  Level Fort Worth Center
09:12PM 32.9172 -91.7322 220° Southwest 421 484 43,000  Level Fort Worth Center
09:13PM 32.8297 -91.8211 220° Southwest 420 483 43,000  Level Fort Worth Center
09:14PM 32.7400 -91.9103 220° Southwest 421 484 43,000  Level Fort Worth Center
09:15PM 32.6489 -92.0025 220° Southwest 425 489 43,000  Level Fort Worth Center
09:16PM 32.5622 -92.0933 221° Southwest 419 482 43,000  Level Fort Worth Center
09:17PM 32.4528 -92.2000 219° Southwest 424 488 43,000  Level Fort Worth Center
09:18PM 32.3622 -92.2903 220° Southwest 426 490 43,000  Level Fort Worth Center
09:19PM 32.3022 -92.3483 219° Southwest 423 487 43,000  Level Houston Center
09:20PM 32.2144 -92.4389 221° Southwest 419 482 43,000  Level Houston Center
09:21PM 32.1064 -92.5436 219° Southwest 419 482 43,000  Level Houston Center
09:22PM 32.0178 -92.6336 221° Southwest 421 484 43,000  Level Houston Center
09:23PM 31.9347 -92.7269 224° Southwest 412 474 43,000  Level Houston Center
09:24PM 31.8575 -92.8250 227° Southwest 410 472 43,000 -60 Level Houston Center
09:25PM 31.7806 -92.9236 227° Southwest 410 472 42,900  Descending Houston Center
09:26PM 31.7025 -93.0203 227° Southwest 410 472 43,000  Climbing Houston Center
09:27PM 31.6269 -93.1172 228° Southwest 404 465 43,000  Level Houston Center
09:28PM 31.5539 -93.2100 227° Southwest 391 450 43,000  Level Houston Center
09:29PM 31.4731 -93.3114 227° Southwest 388 447 43,000  Level Houston Center
09:30PM 31.3997 -93.4042 227° Southwest 389 448 43,000  Level Houston Center
09:31PM 31.3258 -93.4969 227° Southwest 391 450 43,000 -1,140 Level Houston Center
09:32PM 31.2439 -93.5981 227° Southwest 392 451 40,800 -2,220 Descending Houston Center
09:33PM 31.1700 -93.6900 227° Southwest 390 449 38,500 -2,280 Descending Houston Center
09:34PM 31.0936 -93.7844 227° Southwest 399 459 36,200 -2,280 Descending Houston Center
09:35PM 31.0183 -93.8789 227° Southwest 400 460 33,900 -2,280 Descending Houston Center
09:36PM 30.9378 -93.9778 226° Southwest 420 483 31,600 -2,280 Descending Houston Center
09:37PM 30.8547 -94.0794 226° Southwest 433 498 29,300 -2,340 Descending Houston Center
09:38PM 30.7731 -94.1789 226° Southwest 430 495 26,900 -2,580 Descending Houston Center
09:39PM 30.6753 -94.2978 226° Southwest 427 491 24,100 -2,580 Descending Houston Center
09:40PM 30.5942 -94.3950 226° Southwest 428 493 21,700 -2,400 Descending Houston Center
09:40PM 30.5922 -94.3975 228° Southwest 429 494 21,700 -2,580 Level Houston Center
09:40PM 30.5678 -94.4250 224° Southwest 430 495 20,900 -2,460 Descending Houston Center
09:41PM 30.5072 -94.5011 227° Southwest 427 491 19,200 -2,340 Descending Houston Center
09:41PM 30.4928 -94.5175 224° Southwest 428 493 18,800 -2,220 Descending Houston Center
09:42PM 30.4417 -94.6036 235° Southwest 410 472 17,000 -2,280 Descending Houston Center
09:42PM 30.4256 -94.6256 230° Southwest 401 461 16,500 -2,400 Descending Houston Center
09:43PM 30.3744 -94.7042 233° Southwest 398 458 14,600 -2,520 Descending Houston Center
09:43PM 30.3486 -94.7419 232° Southwest 395 455 13,700 -1,620 Descending Houston Center
09:44PM 30.3092 -94.8058 234° Southwest 394 453 13,000 -720 Descending Houston Center
09:44PM 30.2825 -94.8425 230° Southwest 392 451 13,000  Level Houston Center
09:45PM 30.2444 -94.9061 235° Southwest 391 450 13,000  Level Houston Center
09:45PM 30.2183 -94.9425 230° Southwest 389 448 13,000 -600 Level Houston Center
09:46PM 30.1722 -94.9872 220° Southwest 362 417 12,400 -900 Descending Houston Center
09:46PM 30.1386 -95.0081 208° Southwest 348 400 12,100 -1,020 Descending Houston Center
09:47PM 30.0858 -95.0453 211° Southwest 358 412 11,400 -1,380 Descending Houston Center
09:47PM 30.0536 -95.0669 210° Southwest 353 406 10,700 -1,380 Descending Houston Center
09:48PM 30.0028 -95.1003 210° Southwest 346 398 10,000 -720 Descending Houston Center
09:48PM 29.9644 -95.1236 208° Southwest 342 394 10,000  Level Houston Center
09:49PM 29.8758 -95.1636 201° Southwest 353 406 10,000  Level Houston Center
09:50PM 29.8064 -95.1800 192° South 349 402 10,000 -120 Level Houston Center
09:50PM 29.7811 -95.1847 189° South 334 384 9,900 -1,200 Descending Houston Center
09:51PM 29.7233 -95.1992 192° South 316 364 8,800 -1,620 Descending Houston Center
09:51PM 29.7011 -95.2042 191° South 296 341 8,300 -1,980 Descending Houston Center
09:52PM 29.6481 -95.2183 193° South 291 335 6,800 -2,100 Descending Houston Center
09:53PM 29.6250 -95.2231 190° South 267 307 6,200 -840 Descending Houston Center
09:53PM 29.5817 -95.2369 196° South 267 307 6,000 -720 Descending Houston Center
09:53PM 29.5706 -95.2464 216° Southwest 208 239 5,600 -2,760 Descending Houston Center
09:54PM 29.5472 -95.2867 236° Southwest 220 253 3,200 -3,060 Descending Houston Center
09:54PM 29.5506 -95.3017 284° West 210 242 2,500 -1,620 Descending Houston Center
09:55PM 29.5806 -95.3289 322° Northwest 186 214 1,600 -1,020 Descending Houston Center
09:55PM 29.5928 -95.3278 North 132 152 1,500 -720 Descending Houston Center
09:56PM 29.6131 -95.3142 30° Northeast 147 169 900 -840 Descending Houston Center
09:56PM 29.6183 -95.3081 45° Northeast 110 127 700 -720 Descending Houston Center
09:57PM 29.6356 -95.2914 40° Northeast 121 139 200 -600 Descending Houston Center